Time;durP1;ratioP1;P1;durP2;ratioP2;P2;SDS_P1;SDS_P2;PMS_P1;PMS_P2;Temp;Humidity;BMP_temperature;BMP_pressure;BME280_temperature;BME280_humidity;BME280_pressure;Samples;Min_cycle;Max_cycle;Signal;HPM_P1;HPM_P2
2023/01/01 00:01:29;;;;;;;;;;;23.10;53.90;;;;;;6273793;22;43478;-67
2023/01/01 00:03:58;;;;;;;;;;;23.00;53.80;;;;;;6245812;22;43841;-64
2023/01/01 00:06:25;;;;;;;;;;;23.00;53.80;;;;;;6273722;22;43389;-63
2023/01/01 00:10:26;;;;;;;;;;;23.00;53.70;;;;;;6273461;22;43412;-64
2023/01/01 00:11:40;;;;;;;;;;;22.90;53.40;;;;;;6273250;22;43396;-63
2023/01/01 00:14:07;;;;;;;;;;;22.90;53.40;;;;;;6273829;22;43628;-63
2023/01/01 00:16:38;;;;;;;;;;;22.80;53.50;;;;;;6273530;22;43352;-63
2023/01/01 00:19:06;;;;;;;;;;;22.80;53.60;;;;;;6245366;22;43400;-63
2023/01/01 00:21:33;;;;;;;;;;;22.70;53.60;;;;;;6273798;22;43415;-63
2023/01/01 00:24:01;;;;;;;;;;;22.60;53.60;;;;;;6273910;22;43785;-64
2023/01/01 00:26:28;;;;;;;;;;;22.60;53.60;;;;;;6272337;22;43349;-63
2023/01/01 00:29:02;;;;;;;;;;;22.60;53.70;;;;;;6273319;22;43348;-63
2023/01/01 00:31:29;;;;;;;;;;;22.50;53.80;;;;;;6273098;22;43419;-63
2023/01/01 00:33:57;;;;;;;;;;;22.50;53.90;;;;;;6273393;22;43996;-63
2023/01/01 00:36:26;;;;;;;;;;;22.50;53.90;;;;;;6246949;22;43396;-64
2023/01/01 00:38:54;;;;;;;;;;;22.50;54.00;;;;;;6245093;22;43368;-63
2023/01/01 00:41:21;;;;;;;;;;;22.40;54.00;;;;;;6273649;22;43426;-63
2023/01/01 00:43:50;;;;;;;;;;;22.40;54.00;;;;;;6272922;22;43770;-63
2023/01/01 00:46:17;;;;;;;;;;;22.40;54.00;;;;;;6272878;22;43355;-64
2023/01/01 00:48:44;;;;;;;;;;;22.30;54.00;;;;;;6273954;22;43331;-63
2023/01/01 00:51:12;;;;;;;;;;;22.30;54.00;;;;;;6273231;22;43446;-63
2023/01/01 00:53:39;;;;;;;;;;;22.30;54.10;;;;;;6272025;22;43831;-63
2023/01/01 00:56:07;;;;;;;;;;;22.30;54.10;;;;;;6273550;22;43387;-63
2023/01/01 00:58:34;;;;;;;;;;;22.20;54.00;;;;;;6273441;22;44031;-64
2023/01/01 01:01:01;;;;;;;;;;;22.20;54.00;;;;;;6272350;22;43620;-63
2023/01/01 01:03:29;;;;;;;;;;;22.20;54.10;;;;;;6273179;22;43742;-63
2023/01/01 01:05:58;;;;;;;;;;;22.20;54.10;;;;;;6273666;22;43797;-64
2023/01/01 01:08:26;;;;;;;;;;;22.10;54.70;;;;;;6272265;22;43407;-63
2023/01/01 01:11:10;;;;;;;;;;;22.10;54.10;;;;;;6245941;22;43562;-64
2023/01/01 01:13:38;;;;;;;;;;;22.10;54.20;;;;;;6244327;22;43896;-64
2023/01/01 01:16:17;;;;;;;;;;;22.10;54.20;;;;;;6272738;22;43415;-64
2023/01/01 01:18:45;;;;;;;;;;;22.10;54.20;;;;;;6245370;22;43459;-64
2023/01/01 01:21:16;;;;;;;;;;;22.00;54.20;;;;;;6272255;22;43526;-63
2023/01/01 01:23:44;;;;;;;;;;;22.00;54.30;;;;;;6272746;22;43916;-64
2023/01/01 01:26:13;;;;;;;;;;;21.90;54.30;;;;;;6272948;22;43656;-64
2023/01/01 01:28:41;;;;;;;;;;;21.90;54.40;;;;;;6272145;22;43390;-63
2023/01/01 01:31:16;;;;;;;;;;;22.00;54.40;;;;;;6272615;22;43518;-64
2023/01/01 01:33:43;;;;;;;;;;;21.90;54.40;;;;;;6272626;22;44003;-63
2023/01/01 01:36:11;;;;;;;;;;;21.90;54.40;;;;;;6272065;22;43403;-64
2023/01/01 01:38:39;;;;;;;;;;;21.80;54.40;;;;;;6274431;22;43405;-64
2023/01/01 01:41:07;;;;;;;;;;;21.80;54.50;;;;;;6273967;22;43460;-64
2023/01/01 01:43:35;;;;;;;;;;;21.80;54.60;;;;;;6245580;22;44127;-63
2023/01/01 01:46:03;;;;;;;;;;;21.80;54.60;;;;;;6246839;22;43408;-64
2023/01/01 01:48:36;;;;;;;;;;;21.80;54.70;;;;;;6274609;22;43443;-64
2023/01/01 01:51:04;;;;;;;;;;;21.80;54.70;;;;;;6273852;22;43495;-63
2023/01/01 01:53:32;;;;;;;;;;;21.80;54.70;;;;;;6273870;22;43826;-64
2023/01/01 01:56:02;;;;;;;;;;;21.80;54.80;;;;;;6273426;22;43443;-63
2023/01/01 01:58:30;;;;;;;;;;;21.80;55.60;;;;;;6275317;22;43416;-64
2023/01/01 02:00:58;;;;;;;;;;;21.70;54.90;;;;;;6274879;22;43561;-63
2023/01/01 02:03:43;;;;;;;;;;;21.70;54.90;;;;;;6246268;22;44931;-63
2023/01/01 02:06:12;;;;;;;;;;;21.70;55.00;;;;;;6246380;22;43492;-64
2023/01/01 02:08:40;;;;;;;;;;;21.70;55.00;;;;;;6274804;22;43371;-63
2023/01/01 02:11:07;;;;;;;;;;;21.70;55.00;;;;;;6273538;22;43471;-63
2023/01/01 02:13:38;;;;;;;;;;;21.70;55.10;;;;;;6273767;22;43785;-64
2023/01/01 02:16:09;;;;;;;;;;;21.60;55.10;;;;;;6274093;22;43365;-64
2023/01/01 02:18:39;;;;;;;;;;;21.60;55.20;;;;;;6273637;22;43549;-63
2023/01/01 02:21:10;;;;;;;;;;;21.60;55.20;;;;;;6246669;22;43482;-63
2023/01/01 02:23:44;;;;;;;;;;;21.60;55.20;;;;;;6274246;22;44679;-64
2023/01/01 02:26:20;;;;;;;;;;;21.60;55.20;;;;;;6273802;22;43468;-65
2023/01/01 02:29:00;;;;;;;;;;;21.60;55.20;;;;;;6274482;22;43378;-64
2023/01/01 02:31:30;;;;;;;;;;;21.60;55.20;;;;;;6273806;22;43387;-64
2023/01/01 02:34:01;;;;;;;;;;;21.50;55.10;;;;;;6274505;22;44704;-64
2023/01/01 02:36:30;;;;;;;;;;;21.60;55.20;;;;;;6274262;22;43719;-65
2023/01/01 02:39:00;;;;;;;;;;;21.60;55.20;;;;;;6245645;22;43397;-64
2023/01/01 02:41:30;;;;;;;;;;;21.60;55.30;;;;;;6247372;22;43458;-64
2023/01/01 02:43:57;;;;;;;;;;;21.50;55.30;;;;;;6274070;22;43814;-64
2023/01/01 02:46:29;;;;;;;;;;;21.50;55.30;;;;;;6273247;22;43427;-64
2023/01/01 02:48:56;;;;;;;;;;;21.50;55.30;;;;;;6246709;22;43494;-64
2023/01/01 02:51:42;;;;;;;;;;;21.40;55.90;;;;;;6274198;22;44250;-65
2023/01/01 02:54:24;;;;;;;;;;;21.40;55.30;;;;;;6273473;22;45107;-64
2023/01/01 02:57:18;;;;;;;;;;;21.50;55.40;;;;;;6274301;22;43332;-64
2023/01/01 03:02:37;;;;;;;;;;;21.40;55.40;;;;;;6274212;22;44004;-64
2023/01/01 03:05:09;;;;;;;;;;;21.40;55.50;;;;;;6273519;22;44663;-64
2023/01/01 03:07:52;;;;;;;;;;;21.40;55.50;;;;;;6273265;22;43420;-63
2023/01/01 03:10:26;;;;;;;;;;;21.40;55.50;;;;;;6273922;22;43425;-64
2023/01/01 03:12:55;;;;;;;;;;;21.40;55.50;;;;;;6246819;22;43403;-65
2023/01/01 03:15:23;;;;;;;;;;;21.40;55.50;;;;;;6273285;22;44667;-63
2023/01/01 03:17:56;;;;;;;;;;;21.40;55.50;;;;;;6273774;22;43446;-64
2023/01/01 03:20:25;;;;;;;;;;;21.30;55.50;;;;;;6273706;22;43371;-64
2023/01/01 03:22:54;;;;;;;;;;;21.30;55.60;;;;;;6272164;22;43505;-63
2023/01/01 03:25:24;;;;;;;;;;;21.30;55.60;;;;;;6274069;22;43745;-63
2023/01/01 03:27:56;;;;;;;;;;;21.30;55.60;;;;;;6272725;22;43804;-64
2023/01/01 03:30:23;;;;;;;;;;;21.30;55.60;;;;;;6246094;22;43391;-64
2023/01/01 03:33:00;;;;;;;;;;;21.30;55.60;;;;;;6273806;22;43475;-63
2023/01/01 03:35:31;;;;;;;;;;;21.30;55.70;;;;;;6273588;22;44183;-63
2023/01/01 03:37:59;;;;;;;;;;;21.30;55.70;;;;;;6273866;22;43408;-64
2023/01/01 03:40:27;;;;;;;;;;;21.20;55.60;;;;;;6246295;22;43364;-63
2023/01/01 03:42:56;;;;;;;;;;;21.20;55.60;;;;;;6272842;22;43470;-64
2023/01/01 03:45:32;;;;;;;;;;;21.20;55.60;;;;;;6273998;22;43748;-63
2023/01/01 03:48:00;;;;;;;;;;;21.20;55.70;;;;;;6273843;22;43341;-64
2023/01/01 03:50:34;;;;;;;;;;;21.20;55.70;;;;;;6272830;22;43376;-64
2023/01/01 03:53:09;;;;;;;;;;;21.20;55.70;;;;;;6273906;22;43443;-63
2023/01/01 03:55:40;;;;;;;;;;;21.20;55.80;;;;;;6273144;22;43832;-64
2023/01/01 03:58:31;;;;;;;;;;;21.10;55.70;;;;;;6273360;22;43365;-63
2023/01/01 04:01:01;;;;;;;;;;;21.10;55.70;;;;;;6246460;22;43400;-64
2023/01/01 04:03:29;;;;;;;;;;;21.10;55.70;;;;;;6272803;22;43581;-63
2023/01/01 04:05:57;;;;;;;;;;;21.10;55.80;;;;;;6245865;22;45252;-64
2023/01/01 04:08:24;;;;;;;;;;;21.10;55.70;;;;;;6246359;22;43488;-64
2023/01/01 04:10:54;;;;;;;;;;;21.10;55.80;;;;;;6272721;22;43458;-64
2023/01/01 04:13:21;;;;;;;;;;;21.10;55.80;;;;;;6273571;22;43549;-63
2023/01/01 04:15:49;;;;;;;;;;;21.10;55.80;;;;;;6273934;22;44775;-63
2023/01/01 04:18:16;;;;;;;;;;;21.10;55.80;;;;;;6271994;22;43508;-64
2023/01/01 04:20:44;;;;;;;;;;;21.10;55.80;;;;;;6246245;22;43430;-63
2023/01/01 04:23:11;;;;;;;;;;;21.00;55.80;;;;;;6246213;22;43513;-63
2023/01/01 04:25:38;;;;;;;;;;;21.00;55.80;;;;;;6272955;22;43779;-64
2023/01/01 04:28:06;;;;;;;;;;;21.00;55.80;;;;;;6245754;22;44353;-63
2023/01/01 04:30:33;;;;;;;;;;;21.00;55.80;;;;;;6245355;22;43361;-63
2023/01/01 04:33:00;;;;;;;;;;;21.00;55.80;;;;;;6273869;22;43388;-63
2023/01/01 04:35:27;;;;;;;;;;;21.00;55.80;;;;;;6274044;22;43741;-64
2023/01/01 04:37:55;;;;;;;;;;;21.00;55.80;;;;;;6273206;22;43346;-63
2023/01/01 04:40:22;;;;;;;;;;;21.00;55.80;;;;;;6273306;22;43574;-64
2023/01/01 04:42:52;;;;;;;;;;;20.90;55.80;;;;;;6273494;22;43462;-63
2023/01/01 04:45:19;;;;;;;;;;;20.90;55.80;;;;;;6273346;22;43840;-64
2023/01/01 04:47:46;;;;;;;;;;;20.90;55.80;;;;;;6273209;22;43414;-64
2023/01/01 04:50:14;;;;;;;;;;;20.90;55.80;;;;;;6273416;22;43365;-63
2023/01/01 04:52:42;;;;;;;;;;;20.90;55.80;;;;;;6272664;22;43515;-63
2023/01/01 04:55:09;;;;;;;;;;;20.90;55.90;;;;;;6273396;22;44025;-64
2023/01/01 04:57:37;;;;;;;;;;;20.90;55.90;;;;;;6273238;22;43403;-64
2023/01/01 05:00:04;;;;;;;;;;;20.90;55.90;;;;;;6245261;22;43369;-64
2023/01/01 05:02:33;;;;;;;;;;;20.90;55.90;;;;;;6273327;22;43394;-63
2023/01/01 05:05:00;;;;;;;;;;;20.80;55.90;;;;;;6273124;22;43738;-63
2023/01/01 05:07:27;;;;;;;;;;;20.80;55.90;;;;;;6272535;22;43407;-64
2023/01/01 05:09:55;;;;;;;;;;;20.80;55.90;;;;;;6273006;22;43402;-63
2023/01/01 05:12:23;;;;;;;;;;;20.80;55.90;;;;;;6273557;22;43557;-63
2023/01/01 05:14:50;;;;;;;;;;;20.80;56.00;;;;;;6274043;22;43980;-63
2023/01/01 05:17:18;;;;;;;;;;;20.80;55.90;;;;;;6274080;22;43386;-63
2023/01/01 05:19:45;;;;;;;;;;;20.80;55.90;;;;;;6273634;22;43349;-63
2023/01/01 05:22:12;;;;;;;;;;;20.80;56.00;;;;;;6246732;22;43448;-63
2023/01/01 05:24:40;;;;;;;;;;;20.80;56.00;;;;;;6274697;22;44673;-64
2023/01/01 05:27:07;;;;;;;;;;;20.70;55.90;;;;;;6273282;22;43448;-64
2023/01/01 05:29:35;;;;;;;;;;;20.70;55.90;;;;;;6273771;22;43439;-63
2023/01/01 05:32:03;;;;;;;;;;;20.70;55.90;;;;;;6273653;22;43462;-62
2023/01/01 05:34:31;;;;;;;;;;;20.70;55.90;;;;;;6273628;22;44085;-63
2023/01/01 05:36:57;;;;;;;;;;;20.70;56.00;;;;;;6274465;22;43469;-63
2023/01/01 05:39:25;;;;;;;;;;;20.70;55.90;;;;;;6275118;22;43347;-63
2023/01/01 05:41:52;;;;;;;;;;;20.70;56.00;;;;;;6273456;22;43398;-63
2023/01/01 05:44:20;;;;;;;;;;;20.70;56.70;;;;;;6274209;22;43769;-63
2023/01/01 05:46:47;;;;;;;;;;;20.70;56.10;;;;;;6274046;22;43655;-63
2023/01/01 05:49:14;;;;;;;;;;;20.70;55.90;;;;;;6273742;22;43362;-63
2023/01/01 05:51:42;;;;;;;;;;;20.60;55.90;;;;;;6274209;22;43407;-63
2023/01/01 05:54:09;;;;;;;;;;;20.60;56.00;;;;;;6274089;22;43767;-63
2023/01/01 05:56:35;;;;;;;;;;;20.60;56.00;;;;;;6246190;22;43716;-63
2023/01/01 05:59:03;;;;;;;;;;;20.60;56.00;;;;;;6274242;22;43407;-63
2023/01/01 06:01:30;;;;;;;;;;;20.60;56.00;;;;;;6246583;22;43510;-63
2023/01/01 06:03:58;;;;;;;;;;;20.60;56.10;;;;;;6271840;22;43754;-63
2023/01/01 06:06:31;;;;;;;;;;;20.60;56.00;;;;;;6274252;22;43402;-63
2023/01/01 06:09:00;;;;;;;;;;;20.60;56.00;;;;;;6273697;22;43328;-63
2023/01/01 06:11:29;;;;;;;;;;;20.60;56.00;;;;;;6273958;22;43443;-63
2023/01/01 06:13:57;;;;;;;;;;;20.60;56.00;;;;;;6274264;22;43853;-63
2023/01/01 06:16:26;;;;;;;;;;;20.60;56.00;;;;;;6272797;22;43383;-62
2023/01/01 06:18:53;;;;;;;;;;;20.50;56.00;;;;;;6274269;22;43408;-63
2023/01/01 06:21:22;;;;;;;;;;;20.50;56.00;;;;;;6274274;22;43980;-63
2023/01/01 06:23:49;;;;;;;;;;;20.50;56.00;;;;;;6272717;22;43680;-63
2023/01/01 06:26:21;;;;;;;;;;;20.50;55.90;;;;;;6246792;22;43424;-63
2023/01/01 06:28:49;;;;;;;;;;;20.50;55.90;;;;;;6273476;22;43373;-63
2023/01/01 06:31:18;;;;;;;;;;;20.50;55.90;;;;;;6272747;22;43613;-63
2023/01/01 06:33:47;;;;;;;;;;;20.50;55.90;;;;;;6220602;22;44649;-63
2023/01/01 06:36:15;;;;;;;;;;;20.50;55.80;;;;;;6273923;22;43517;-63
2023/01/01 06:38:47;;;;;;;;;;;20.40;55.80;;;;;;6272935;22;43422;-63
2023/01/01 06:41:15;;;;;;;;;;;20.50;55.80;;;;;;6274175;22;43887;-63
2023/01/01 06:43:43;;;;;;;;;;;20.40;55.80;;;;;;6273755;22;43854;-63
2023/01/01 06:46:13;;;;;;;;;;;20.40;55.80;;;;;;6273088;22;43808;-63
2023/01/01 06:48:41;;;;;;;;;;;20.40;55.80;;;;;;6273670;22;43402;-63
2023/01/01 06:51:13;;;;;;;;;;;20.40;55.80;;;;;;6272971;22;43965;-63
2023/01/01 06:53:41;;;;;;;;;;;20.40;55.80;;;;;;6273803;22;45028;-63
2023/01/01 06:56:09;;;;;;;;;;;20.40;55.80;;;;;;6274032;22;43445;-63
2023/01/01 06:58:36;;;;;;;;;;;20.30;55.70;;;;;;6273076;22;43330;-63
2023/01/01 07:01:05;;;;;;;;;;;20.30;55.70;;;;;;6273764;22;43411;-63
2023/01/01 07:03:35;;;;;;;;;;;20.30;55.70;;;;;;6273663;22;43915;-63
2023/01/01 07:06:03;;;;;;;;;;;20.30;56.40;;;;;;6272794;22;43619;-63
2023/01/01 07:08:30;;;;;;;;;;;20.30;55.80;;;;;;6273789;22;43464;-63
2023/01/01 07:10:57;;;;;;;;;;;20.30;55.70;;;;;;6273444;22;43496;-63
2023/01/01 07:13:25;;;;;;;;;;;20.30;55.70;;;;;;6245875;22;44135;-62
2023/01/01 07:15:52;;;;;;;;;;;20.30;55.70;;;;;;6274024;22;43333;-63
2023/01/01 07:18:21;;;;;;;;;;;20.30;55.70;;;;;;6273893;22;44017;-63
2023/01/01 07:20:50;;;;;;;;;;;20.20;55.70;;;;;;6271964;22;43420;-63
2023/01/01 07:23:17;;;;;;;;;;;20.20;56.00;;;;;;6272694;22;44030;-63
2023/01/01 07:25:47;;;;;;;;;;;20.30;55.80;;;;;;6273324;22;43486;-64
2023/01/01 07:28:14;;;;;;;;;;;20.20;55.70;;;;;;6272330;22;43427;-63
2023/01/01 07:30:41;;;;;;;;;;;20.30;55.70;;;;;;6273667;22;43461;-63
2023/01/01 07:33:13;;;;;;;;;;;20.30;55.70;;;;;;6272836;22;44017;-63
2023/01/01 07:35:40;;;;;;;;;;;20.20;55.60;;;;;;6272869;22;43399;-64
2023/01/01 07:38:07;;;;;;;;;;;20.20;55.70;;;;;;6273804;22;43330;-65
2023/01/01 07:40:35;;;;;;;;;;;20.20;55.60;;;;;;6272990;22;43391;-64
2023/01/01 07:43:02;;;;;;;;;;;20.20;55.80;;;;;;6273196;22;43833;-64
2023/01/01 07:45:30;;;;;;;;;;;20.30;55.80;;;;;;6274313;22;43460;-64
2023/01/01 07:47:58;;;;;;;;;;;20.30;55.60;;;;;;6272998;22;43357;-64
2023/01/01 07:50:27;;;;;;;;;;;20.20;55.60;;;;;;6273340;22;43440;-64
2023/01/01 07:52:54;;;;;;;;;;;20.20;55.60;;;;;;6273134;22;43722;-64
2023/01/01 07:55:22;;;;;;;;;;;20.20;55.60;;;;;;6272672;22;43304;-64
2023/01/01 07:57:49;;;;;;;;;;;20.20;55.60;;;;;;6273831;22;43427;-64
2023/01/01 08:00:17;;;;;;;;;;;20.20;55.60;;;;;;6245947;22;43473;-64
2023/01/01 08:02:45;;;;;;;;;;;20.20;55.60;;;;;;6245154;22;43857;-64
2023/01/01 08:05:13;;;;;;;;;;;20.20;55.70;;;;;;6273237;22;43351;-64
2023/01/01 08:07:44;;;;;;;;;;;20.10;55.60;;;;;;6272894;22;43435;-64
2023/01/01 08:10:11;;;;;;;;;;;20.10;55.60;;;;;;6245269;22;44066;-64
2023/01/01 08:12:38;;;;;;;;;;;20.10;55.60;;;;;;6272574;22;43551;-64
2023/01/01 08:15:06;;;;;;;;;;;20.10;55.60;;;;;;6272416;22;43424;-64
2023/01/01 08:17:33;;;;;;;;;;;20.10;55.60;;;;;;6272945;22;43514;-64
2023/01/01 08:20:01;;;;;;;;;;;20.10;55.60;;;;;;6273702;22;43680;-64
2023/01/01 08:22:28;;;;;;;;;;;20.10;55.60;;;;;;6273462;22;43897;-64
2023/01/01 08:24:55;;;;;;;;;;;20.10;56.30;;;;;;6269538;22;43402;-63
2023/01/01 08:27:23;;;;;;;;;;;20.10;55.80;;;;;;6273335;22;43964;-63
2023/01/01 08:29:50;;;;;;;;;;;20.10;55.80;;;;;;6272221;22;43558;-62
2023/01/01 08:32:17;;;;;;;;;;;20.10;55.70;;;;;;6272656;22;43752;-64
2023/01/01 08:34:45;;;;;;;;;;;20.00;56.00;;;;;;6271995;22;43294;-62
2023/01/01 08:37:13;;;;;;;;;;;20.00;55.80;;;;;;6271281;22;43549;-62
2023/01/01 08:39:40;;;;;;;;;;;20.00;55.80;;;;;;6273044;22;43420;-62
2023/01/01 08:42:08;;;;;;;;;;;20.00;55.80;;;;;;6272817;22;44913;-62
2023/01/01 08:44:38;;;;;;;;;;;20.00;55.90;;;;;;6272045;22;43483;-63
2023/01/01 08:47:05;;;;;;;;;;;20.00;55.80;;;;;;6273349;22;43957;-62
2023/01/01 08:49:33;;;;;;;;;;;20.00;55.80;;;;;;6273510;22;43523;-62
2023/01/01 08:52:00;;;;;;;;;;;20.00;55.90;;;;;;6273240;22;44871;-62
2023/01/01 08:54:28;;;;;;;;;;;19.90;55.80;;;;;;6274505;22;43487;-62
2023/01/01 08:56:56;;;;;;;;;;;19.90;55.80;;;;;;6274446;22;43520;-62
2023/01/01 08:59:24;;;;;;;;;;;19.90;55.70;;;;;;6245970;22;43941;-63
2023/01/01 09:01:52;;;;;;;;;;;19.90;55.80;;;;;;6273239;22;44947;-63
2023/01/01 09:04:20;;;;;;;;;;;19.90;55.80;;;;;;6273910;22;43849;-62
2023/01/01 09:06:47;;;;;;;;;;;19.90;55.90;;;;;;6273891;22;43400;-62
2023/01/01 09:09:14;;;;;;;;;;;19.90;55.90;;;;;;6275074;22;43454;-62
2023/01/01 09:11:51;;;;;;;;;;;20.00;55.90;;;;;;6274951;22;44867;-63
2023/01/01 09:14:19;;;;;;;;;;;20.00;56.00;;;;;;6247569;22;43480;-64
2023/01/01 09:16:46;;;;;;;;;;;20.00;56.10;;;;;;6271651;22;43359;-64
2023/01/01 09:19:14;;;;;;;;;;;20.00;55.70;;;;;;6273563;22;43543;-65
2023/01/01 09:21:42;;;;;;;;;;;20.00;55.60;;;;;;6273439;22;44653;-65
2023/01/01 09:24:09;;;;;;;;;;;20.10;55.60;;;;;;6246109;22;43783;-65
2023/01/01 09:26:37;;;;;;;;;;;20.10;55.40;;;;;;6273101;22;43338;-65
2023/01/01 09:29:04;;;;;;;;;;;20.10;55.50;;;;;;6273365;22;43505;-65
2023/01/01 09:31:32;;;;;;;;;;;20.10;55.40;;;;;;6273533;22;43541;-65
2023/01/01 09:33:59;;;;;;;;;;;20.10;55.40;;;;;;6272972;22;43434;-65
2023/01/01 09:36:28;;;;;;;;;;;20.10;55.30;;;;;;6275023;22;43333;-65
2023/01/01 09:38:56;;;;;;;;;;;20.10;55.40;;;;;;6274822;22;43407;-65
2023/01/01 09:41:26;;;;;;;;;;;20.10;55.40;;;;;;6273103;22;43834;-64
2023/01/01 09:44:00;;;;;;;;;;;20.10;55.50;;;;;;6273776;22;43555;-64
2023/01/01 09:46:27;;;;;;;;;;;20.10;55.40;;;;;;6248134;22;43300;-64
2023/01/01 09:48:59;;;;;;;;;;;20.10;55.70;;;;;;6274191;22;43427;-65
2023/01/01 09:51:29;;;;;;;;;;;20.00;55.60;;;;;;6271635;22;44681;-65
2023/01/01 09:54:10;;;;;;;;;;;20.00;55.70;;;;;;6274494;22;43391;-65
2023/01/01 09:56:39;;;;;;;;;;;20.10;55.70;;;;;;6246928;22;43353;-64
2023/01/01 09:59:08;;;;;;;;;;;20.00;55.70;;;;;;6272957;22;43570;-65
2023/01/01 10:01:59;;;;;;;;;;;20.10;55.70;;;;;;6272880;22;44753;-65
2023/01/01 10:04:45;;;;;;;;;;;20.20;55.60;;;;;;6216908;22;44000;-66
2023/01/01 10:07:34;;;;;;;;;;;20.20;55.70;;;;;;6246866;22;43384;-65
2023/01/01 10:10:05;;;;;;;;;;;20.30;55.40;;;;;;6273723;22;43335;-66
2023/01/01 10:12:40;;;;;;;;;;;20.40;55.40;;;;;;6274312;22;43526;-65
2023/01/01 10:15:17;;;;;;;;;;;20.40;55.20;;;;;;6246207;22;44036;-65
2023/01/01 10:17:46;;;;;;;;;;;20.50;55.20;;;;;;6274466;22;43409;-65
2023/01/01 10:20:18;;;;;;;;;;;20.60;55.20;;;;;;6274081;22;43615;-65
2023/01/01 10:22:48;;;;;;;;;;;20.60;55.10;;;;;;6272611;22;43673;-64
2023/01/01 10:25:24;;;;;;;;;;;20.70;55.00;;;;;;6274381;22;43351;-65
2023/01/01 10:27:59;;;;;;;;;;;20.70;54.80;;;;;;6274457;22;43422;-66
2023/01/01 10:30:27;;;;;;;;;;;20.80;54.80;;;;;;6273734;22;43416;-65
2023/01/01 10:32:55;;;;;;;;;;;20.90;54.80;;;;;;6273901;22;44023;-65
2023/01/01 10:35:29;;;;;;;;;;;21.00;54.70;;;;;;6274576;22;43404;-65
2023/01/01 10:37:58;;;;;;;;;;;21.10;54.50;;;;;;6274314;22;43365;-66
2023/01/01 10:40:26;;;;;;;;;;;21.20;54.40;;;;;;6274735;22;43406;-66
2023/01/01 10:42:55;;;;;;;;;;;21.20;54.40;;;;;;6273935;22;44945;-66
2023/01/01 10:45:41;;;;;;;;;;;21.30;54.40;;;;;;6273834;22;43371;-66
2023/01/01 10:48:08;;;;;;;;;;;21.30;54.30;;;;;;6274525;22;43359;-66
2023/01/01 10:50:43;;;;;;;;;;;21.30;54.20;;;;;;6273496;22;43377;-66
2023/01/01 10:53:19;;;;;;;;;;;21.30;54.10;;;;;;6273789;22;44036;-66
2023/01/01 10:55:47;;;;;;;;;;;21.30;54.10;;;;;;6274337;22;43444;-66
2023/01/01 10:58:25;;;;;;;;;;;21.40;54.10;;;;;;6273546;22;43445;-66
2023/01/01 11:00:59;;;;;;;;;;;21.40;54.10;;;;;;6274295;22;43885;-66
2023/01/01 11:03:27;;;;;;;;;;;21.40;54.00;;;;;;6273848;22;43942;-67
2023/01/01 11:06:13;;;;;;;;;;;21.40;54.10;;;;;;6246683;22;43397;-66
2023/01/01 11:08:46;;;;;;;;;;;21.40;54.20;;;;;;6246702;22;43365;-66
2023/01/01 11:11:20;;;;;;;;;;;21.40;54.20;;;;;;6273170;22;43487;-63
2023/01/01 11:13:50;;;;;;;;;;;21.50;54.20;;;;;;6274200;22;43618;-66
2023/01/01 11:16:18;;;;;;;;;;;21.50;54.20;;;;;;6274173;22;43574;-64
2023/01/01 11:18:46;;;;;;;;;;;21.50;54.10;;;;;;6273438;22;43471;-66
2023/01/01 11:21:18;;;;;;;;;;;21.50;54.10;;;;;;6273768;22;43403;-67
2023/01/01 11:23:46;;;;;;;;;;;21.50;54.20;;;;;;6274257;22;43841;-64
2023/01/01 11:26:19;;;;;;;;;;;21.50;54.20;;;;;;6273229;22;43684;-64
2023/01/01 11:29:00;;;;;;;;;;;21.50;54.30;;;;;;6273867;22;43430;-64
2023/01/01 11:31:35;;;;;;;;;;;21.50;54.10;;;;;;6274579;22;43459;-66
2023/01/01 11:34:10;;;;;;;;;;;21.50;54.20;;;;;;6272441;22;43769;-65
2023/01/01 11:36:37;;;;;;;;;;;21.50;54.10;;;;;;6273702;22;43569;-65
2023/01/01 11:39:14;;;;;;;;;;;21.50;54.20;;;;;;6273330;22;43416;-65
2023/01/01 11:41:43;;;;;;;;;;;21.40;54.20;;;;;;6272703;22;43422;-64
2023/01/01 11:44:12;;;;;;;;;;;21.40;54.20;;;;;;6273273;22;43849;-65
2023/01/01 11:46:39;;;;;;;;;;;21.40;54.30;;;;;;6272379;22;43587;-65
2023/01/01 11:49:12;;;;;;;;;;;21.30;54.20;;;;;;6273444;22;43801;-65
2023/01/01 11:51:39;;;;;;;;;;;21.30;54.20;;;;;;6273150;22;43522;-65
2023/01/01 11:54:19;;;;;;;;;;;21.30;54.20;;;;;;6270307;22;44328;-65
2023/01/01 11:56:48;;;;;;;;;;;21.30;54.20;;;;;;6272335;22;43450;-65
2023/01/01 11:59:17;;;;;;;;;;;21.30;54.30;;;;;;6272553;22;43507;-65
2023/01/01 12:01:47;;;;;;;;;;;21.30;54.30;;;;;;6272507;22;43451;-64
2023/01/01 12:04:30;;;;;;;;;;;21.30;54.40;;;;;;6272307;22;44099;-65
2023/01/01 12:07:04;;;;;;;;;;;21.30;54.40;;;;;;6272116;22;43426;-65
2023/01/01 12:09:44;;;;;;;;;;;21.20;54.20;;;;;;6270909;22;43434;-65
2023/01/01 12:12:17;;;;;;;;;;;21.20;54.30;;;;;;6272344;22;43427;-65
2023/01/01 12:14:51;;;;;;;;;;;21.20;54.40;;;;;;6270668;22;44649;-65
2023/01/01 12:17:22;;;;;;;;;;;21.20;54.50;;;;;;6271356;22;43426;-65
2023/01/01 12:19:55;;;;;;;;;;;21.20;54.40;;;;;;6271943;22;43360;-65
2023/01/01 12:22:24;;;;;;;;;;;21.10;54.40;;;;;;6271280;22;44343;-65
2023/01/01 12:24:52;;;;;;;;;;;21.10;54.40;;;;;;6273229;22;44939;-65
2023/01/01 12:27:33;;;;;;;;;;;21.10;54.50;;;;;;6273608;22;43491;-65
2023/01/01 12:30:12;;;;;;;;;;;21.10;54.50;;;;;;6272898;22;43382;-65
2023/01/01 12:32:58;;;;;;;;;;;21.10;54.50;;;;;;6272991;22;43408;-65
2023/01/01 12:35:46;;;;;;;;;;;21.10;54.50;;;;;;6271978;22;45071;-65
2023/01/01 12:38:22;;;;;;;;;;;21.10;54.50;;;;;;6273581;22;43442;-65
2023/01/01 12:40:50;;;;;;;;;;;21.00;54.60;;;;;;6272096;22;43382;-65
2023/01/01 12:43:20;;;;;;;;;;;21.00;54.50;;;;;;6272110;22;43416;-65
2023/01/01 12:46:10;;;;;;;;;;;21.00;54.60;;;;;;6273379;22;43987;-65
2023/01/01 12:48:58;;;;;;;;;;;21.00;54.60;;;;;;6273176;22;43469;-64
2023/01/01 12:51:25;;;;;;;;;;;21.00;54.60;;;;;;6272685;22;43502;-65
2023/01/01 12:54:07;;;;;;;;;;;21.00;54.60;;;;;;6272630;22;43617;-65
2023/01/01 12:56:42;;;;;;;;;;;21.00;54.60;;;;;;6272255;22;43749;-64
2023/01/01 12:59:31;;;;;;;;;;;21.00;54.70;;;;;;6272513;22;43739;-65
2023/01/01 13:02:00;;;;;;;;;;;20.90;54.60;;;;;;6272734;22;43415;-65
2023/01/01 13:04:28;;;;;;;;;;;20.90;54.70;;;;;;6244551;22;43530;-65
2023/01/01 13:07:05;;;;;;;;;;;20.90;54.70;;;;;;6273089;22;43760;-65
2023/01/01 13:09:34;;;;;;;;;;;20.90;54.70;;;;;;6245606;22;43504;-64
2023/01/01 13:12:09;;;;;;;;;;;20.90;54.60;;;;;;6271773;22;43410;-64
2023/01/01 13:14:40;;;;;;;;;;;20.90;54.60;;;;;;6273239;22;43438;-65
2023/01/01 13:17:24;;;;;;;;;;;20.90;54.60;;;;;;6272402;22;43985;-64
2023/01/01 13:19:56;;;;;;;;;;;20.90;54.60;;;;;;6271659;22;43423;-65
2023/01/01 13:22:34;;;;;;;;;;;20.90;54.60;;;;;;6245483;22;43498;-65
2023/01/01 13:25:07;;;;;;;;;;;20.80;54.60;;;;;;6272333;22;43387;-64
2023/01/01 13:27:53;;;;;;;;;;;20.80;54.60;;;;;;6272939;22;44083;-65
2023/01/01 13:30:36;;;;;;;;;;;20.80;54.70;;;;;;6273067;22;43469;-64
2023/01/01 13:33:10;;;;;;;;;;;20.80;54.80;;;;;;6272216;22;43413;-64
2023/01/01 13:35:37;;;;;;;;;;;20.80;54.70;;;;;;6273818;22;43338;-64
2023/01/01 13:38:24;;;;;;;;;;;20.80;54.70;;;;;;6274527;22;44011;-65
2023/01/01 13:40:52;;;;;;;;;;;20.70;54.70;;;;;;6273165;22;43380;-65
2023/01/01 13:43:19;;;;;;;;;;;20.70;54.70;;;;;;6273572;22;43369;-65
2023/01/01 13:45:54;;;;;;;;;;;20.70;54.70;;;;;;6274482;22;43424;-65
2023/01/01 13:48:54;;;;;;;;;;;20.70;54.70;;;;;;6273398;22;45392;-64
2023/01/01 13:51:33;;;;;;;;;;;20.70;54.70;;;;;;6274378;22;43707;-64
2023/01/01 13:54:24;;;;;;;;;;;20.70;54.70;;;;;;6273409;22;43415;-64
2023/01/01 13:56:56;;;;;;;;;;;20.70;54.70;;;;;;6274575;22;43597;-63
2023/01/01 13:59:32;;;;;;;;;;;20.70;54.70;;;;;;6246525;22;43993;-62
2023/01/01 14:02:15;;;;;;;;;;;20.60;54.90;;;;;;6273618;22;43726;-63
2023/01/01 14:04:43;;;;;;;;;;;20.60;54.90;;;;;;6274388;22;43463;-62
2023/01/01 14:07:30;;;;;;;;;;;20.60;55.00;;;;;;6274044;22;43406;-63
2023/01/01 14:10:24;;;;;;;;;;;20.60;55.10;;;;;;6268640;22;44091;-63
2023/01/01 14:12:52;;;;;;;;;;;20.60;55.10;;;;;;6274116;22;43367;-64
2023/01/01 14:15:24;;;;;;;;;;;20.60;55.10;;;;;;6273875;22;43343;-63
2023/01/01 14:17:53;;;;;;;;;;;20.60;55.50;;;;;;6273956;22;43544;-65
2023/01/01 14:20:21;;;;;;;;;;;20.60;55.30;;;;;;6273889;22;43845;-64
2023/01/01 14:22:50;;;;;;;;;;;20.60;55.30;;;;;;6272989;22;43483;-64
2023/01/01 14:25:27;;;;;;;;;;;20.60;55.30;;;;;;6274445;22;43382;-63
2023/01/01 14:27:55;;;;;;;;;;;20.60;55.40;;;;;;6274282;22;43834;-63
2023/01/01 14:30:23;;;;;;;;;;;20.60;55.40;;;;;;6272901;22;44891;-63
2023/01/01 14:32:54;;;;;;;;;;;20.60;55.40;;;;;;6272945;22;43417;-64
2023/01/01 14:35:22;;;;;;;;;;;20.60;55.40;;;;;;6273539;22;43387;-64
2023/01/01 14:37:49;;;;;;;;;;;20.60;55.40;;;;;;6274439;22;43406;-63
2023/01/01 14:40:25;;;;;;;;;;;20.60;55.40;;;;;;6270114;22;43926;-63